sensor_id;sensor_type;location;lat;lon;timestamp;P1;durP1;ratioP1;P2;durP2;ratioP2
46675;SDS011;32412;51.478;5.694;2023-06-26T00:00:15;14.00;;;10.13;;
46675;SDS011;32412;51.478;5.694;2023-06-26T00:02:41;12.43;;;10.35;;
46675;SDS011;32412;51.478;5.694;2023-06-26T00:05:07;11.13;;;9.80;;
46675;SDS011;32412;51.478;5.694;2023-06-26T00:07:33;12.68;;;10.43;;
46675;SDS011;32412;51.478;5.694;2023-06-26T00:10:00;14.55;;;10.13;;
46675;SDS011;32412;51.478;5.694;2023-06-26T00:12:27;14.63;;;10.00;;
46675;SDS011;32412;51.478;5.694;2023-06-26T00:14:53;11.93;;;9.80;;
46675;SDS011;32412;51.478;5.694;2023-06-26T00:17:20;10.68;;;9.18;;
46675;SDS011;32412;51.478;5.694;2023-06-26T00:19:45;12.40;;;9.90;;
46675;SDS011;32412;51.478;5.694;2023-06-26T00:22:11;9.77;;;8.77;;
46675;SDS011;32412;51.478;5.694;2023-06-26T00:24:37;10.60;;;9.13;;
46675;SDS011;32412;51.478;5.694;2023-06-26T00:27:03;12.30;;;8.93;;
46675;SDS011;32412;51.478;5.694;2023-06-26T00:29:28;11.82;;;9.25;;
46675;SDS011;32412;51.478;5.694;2023-06-26T00:31:54;13.98;;;9.05;;
46675;SDS011;32412;51.478;5.694;2023-06-26T00:34:20;10.93;;;8.23;;
46675;SDS011;32412;51.478;5.694;2023-06-26T00:36:45;10.48;;;8.27;;
46675;SDS011;32412;51.478;5.694;2023-06-26T00:39:11;9.25;;;8.30;;
46675;SDS011;32412;51.478;5.694;2023-06-26T00:41:37;9.57;;;8.57;;
46675;SDS011;32412;51.478;5.694;2023-06-26T00:44:03;10.45;;;8.77;;
46675;SDS011;32412;51.478;5.694;2023-06-26T00:46:30;10.60;;;8.45;;
46675;SDS011;32412;51.478;5.694;2023-06-26T00:48:57;9.82;;;8.82;;
46675;SDS011;32412;51.478;5.694;2023-06-26T00:51:25;10.20;;;8.95;;
46675;SDS011;32412;51.478;5.694;2023-06-26T00:53:54;9.23;;;8.32;;
46675;SDS011;32412;51.478;5.694;2023-06-26T00:56:20;10.55;;;8.68;;
46675;SDS011;32412;51.478;5.694;2023-06-26T00:58:46;9.90;;;8.48;;
46675;SDS011;32412;51.478;5.694;2023-06-26T01:01:12;9.48;;;8.40;;
46675;SDS011;32412;51.478;5.694;2023-06-26T01:03:42;10.02;;;8.82;;
46675;SDS011;32412;51.478;5.694;2023-06-26T01:06:09;11.52;;;8.68;;
46675;SDS011;32412;51.478;5.694;2023-06-26T01:08:38;11.88;;;8.93;;
46675;SDS011;32412;51.478;5.694;2023-06-26T01:11:06;9.82;;;8.82;;
46675;SDS011;32412;51.478;5.694;2023-06-26T01:13:32;10.32;;;8.85;;
46675;SDS011;32412;51.478;5.694;2023-06-26T01:15:59;10.20;;;8.63;;
46675;SDS011;32412;51.478;5.694;2023-06-26T01:18:25;9.68;;;8.68;;
46675;SDS011;32412;51.478;5.694;2023-06-26T01:20:51;9.55;;;7.95;;
46675;SDS011;32412;51.478;5.694;2023-06-26T01:23:25;9.48;;;8.20;;
46675;SDS011;32412;51.478;5.694;2023-06-26T01:26:22;9.23;;;7.93;;
46675;SDS011;32412;51.478;5.694;2023-06-26T01:28:51;9.45;;;8.27;;
46675;SDS011;32412;51.478;5.694;2023-06-26T01:31:19;9.55;;;6.68;;
46675;SDS011;32412;51.478;5.694;2023-06-26T01:33:44;8.18;;;6.75;;
46675;SDS011;32412;51.478;5.694;2023-06-26T01:36:11;12.55;;;6.30;;
46675;SDS011;32412;51.478;5.694;2023-06-26T01:38:37;8.43;;;5.95;;
46675;SDS011;32412;51.478;5.694;2023-06-26T01:41:04;6.63;;;5.30;;
46675;SDS011;32412;51.478;5.694;2023-06-26T01:46:34;7.32;;;5.22;;
46675;SDS011;32412;51.478;5.694;2023-06-26T01:52:01;7.20;;;5.60;;
46675;SDS011;32412;51.478;5.694;2023-06-26T01:57:33;8.30;;;5.38;;
46675;SDS011;32412;51.478;5.694;2023-06-26T02:00:01;7.25;;;5.20;;
46675;SDS011;32412;51.478;5.694;2023-06-26T02:02:28;8.15;;;5.22;;
46675;SDS011;32412;51.478;5.694;2023-06-26T02:04:54;7.40;;;5.25;;
46675;SDS011;32412;51.478;5.694;2023-06-26T02:07:20;6.50;;;5.70;;
46675;SDS011;32412;51.478;5.694;2023-06-26T02:09:45;9.57;;;5.85;;
46675;SDS011;32412;51.478;5.694;2023-06-26T02:12:11;8.13;;;5.32;;
46675;SDS011;32412;51.478;5.694;2023-06-26T02:14:37;9.48;;;5.82;;
46675;SDS011;32412;51.478;5.694;2023-06-26T02:17:03;6.75;;;5.28;;
46675;SDS011;32412;51.478;5.694;2023-06-26T02:19:29;8.07;;;5.70;;
46675;SDS011;32412;51.478;5.694;2023-06-26T02:21:55;7.38;;;5.25;;
46675;SDS011;32412;51.478;5.694;2023-06-26T02:24:21;6.95;;;5.40;;
46675;SDS011;32412;51.478;5.694;2023-06-26T02:26:46;9.60;;;5.60;;
46675;SDS011;32412;51.478;5.694;2023-06-26T02:29:14;7.63;;;5.60;;
46675;SDS011;32412;51.478;5.694;2023-06-26T02:31:39;7.05;;;5.55;;
46675;SDS011;32412;51.478;5.694;2023-06-26T02:34:06;7.78;;;5.35;;
46675;SDS011;32412;51.478;5.694;2023-06-26T02:36:32;7.47;;;5.57;;
46675;SDS011;32412;51.478;5.694;2023-06-26T02:38:57;8.82;;;5.68;;
46675;SDS011;32412;51.478;5.694;2023-06-26T02:41:23;7.43;;;5.40;;
46675;SDS011;32412;51.478;5.694;2023-06-26T02:43:49;7.20;;;5.35;;
46675;SDS011;32412;51.478;5.694;2023-06-26T02:46:14;8.35;;;5.20;;
46675;SDS011;32412;51.478;5.694;2023-06-26T02:48:40;10.32;;;4.90;;
46675;SDS011;32412;51.478;5.694;2023-06-26T02:51:06;6.50;;;4.88;;
46675;SDS011;32412;51.478;5.694;2023-06-26T02:53:32;5.97;;;4.47;;
46675;SDS011;32412;51.478;5.694;2023-06-26T02:55:58;6.35;;;4.63;;
46675;SDS011;32412;51.478;5.694;2023-06-26T02:58:24;5.18;;;4.20;;
46675;SDS011;32412;51.478;5.694;2023-06-26T03:00:49;7.95;;;4.40;;
46675;SDS011;32412;51.478;5.694;2023-06-26T03:03:15;7.78;;;4.38;;
46675;SDS011;32412;51.478;5.694;2023-06-26T03:05:41;7.35;;;4.90;;
46675;SDS011;32412;51.478;5.694;2023-06-26T03:08:07;6.55;;;4.28;;
46675;SDS011;32412;51.478;5.694;2023-06-26T03:10:32;7.47;;;5.03;;
46675;SDS011;32412;51.478;5.694;2023-06-26T03:12:58;6.40;;;4.40;;
46675;SDS011;32412;51.478;5.694;2023-06-26T03:15:23;6.55;;;3.63;;
46675;SDS011;32412;51.478;5.694;2023-06-26T03:17:49;6.97;;;4.32;;
46675;SDS011;32412;51.478;5.694;2023-06-26T03:20:15;7.57;;;4.30;;
46675;SDS011;32412;51.478;5.694;2023-06-26T03:22:40;8.02;;;4.28;;
46675;SDS011;32412;51.478;5.694;2023-06-26T03:25:06;7.63;;;4.35;;
46675;SDS011;32412;51.478;5.694;2023-06-26T03:27:32;6.00;;;4.25;;
46675;SDS011;32412;51.478;5.694;2023-06-26T03:29:58;10.43;;;4.97;;
46675;SDS011;32412;51.478;5.694;2023-06-26T03:32:24;7.28;;;4.00;;
46675;SDS011;32412;51.478;5.694;2023-06-26T03:34:49;7.90;;;4.22;;
46675;SDS011;32412;51.478;5.694;2023-06-26T03:37:15;7.18;;;4.15;;
46675;SDS011;32412;51.478;5.694;2023-06-26T03:39:40;8.98;;;4.30;;
46675;SDS011;32412;51.478;5.694;2023-06-26T03:42:06;10.27;;;4.97;;
46675;SDS011;32412;51.478;5.694;2023-06-26T03:44:32;8.98;;;4.28;;
46675;SDS011;32412;51.478;5.694;2023-06-26T03:46:58;8.68;;;4.20;;
46675;SDS011;32412;51.478;5.694;2023-06-26T03:49:23;8.73;;;3.92;;
46675;SDS011;32412;51.478;5.694;2023-06-26T03:51:49;8.00;;;4.50;;
46675;SDS011;32412;51.478;5.694;2023-06-26T03:54:15;10.20;;;4.22;;
46675;SDS011;32412;51.478;5.694;2023-06-26T03:56:40;10.23;;;4.57;;
46675;SDS011;32412;51.478;5.694;2023-06-26T03:59:06;8.23;;;4.38;;
46675;SDS011;32412;51.478;5.694;2023-06-26T04:01:31;10.07;;;4.40;;
46675;SDS011;32412;51.478;5.694;2023-06-26T04:04:00;8.18;;;4.55;;
46675;SDS011;32412;51.478;5.694;2023-06-26T04:06:25;8.95;;;4.85;;
46675;SDS011;32412;51.478;5.694;2023-06-26T04:08:51;9.70;;;5.00;;
46675;SDS011;32412;51.478;5.694;2023-06-26T04:11:16;11.73;;;4.53;;
46675;SDS011;32412;51.478;5.694;2023-06-26T04:13:42;8.95;;;4.70;;
46675;SDS011;32412;51.478;5.694;2023-06-26T04:16:08;11.68;;;4.78;;
46675;SDS011;32412;51.478;5.694;2023-06-26T04:18:33;9.10;;;5.03;;
46675;SDS011;32412;51.478;5.694;2023-06-26T04:23:37;10.27;;;4.72;;
46675;SDS011;32412;51.478;5.694;2023-06-26T04:26:04;12.00;;;5.35;;
46675;SDS011;32412;51.478;5.694;2023-06-26T04:28:33;13.02;;;4.88;;
46675;SDS011;32412;51.478;5.694;2023-06-26T04:31:00;8.90;;;5.00;;
46675;SDS011;32412;51.478;5.694;2023-06-26T04:33:27;10.80;;;4.78;;
46675;SDS011;32412;51.478;5.694;2023-06-26T04:35:52;9.35;;;5.10;;
46675;SDS011;32412;51.478;5.694;2023-06-26T04:38:18;11.27;;;5.10;;
46675;SDS011;32412;51.478;5.694;2023-06-26T04:40:44;9.43;;;4.93;;
46675;SDS011;32412;51.478;5.694;2023-06-26T04:43:10;14.52;;;5.35;;
46675;SDS011;32412;51.478;5.694;2023-06-26T04:45:36;9.82;;;4.97;;
46675;SDS011;32412;51.478;5.694;2023-06-26T04:48:02;11.10;;;5.05;;
46675;SDS011;32412;51.478;5.694;2023-06-26T04:50:28;16.08;;;5.22;;
46675;SDS011;32412;51.478;5.694;2023-06-26T04:52:57;11.80;;;4.75;;
46675;SDS011;32412;51.478;5.694;2023-06-26T04:55:26;15.65;;;5.85;;
46675;SDS011;32412;51.478;5.694;2023-06-26T04:57:52;13.50;;;5.18;;
46675;SDS011;32412;51.478;5.694;2023-06-26T05:00:18;12.00;;;5.18;;
46675;SDS011;32412;51.478;5.694;2023-06-26T05:02:43;10.05;;;5.20;;
46675;SDS011;32412;51.478;5.694;2023-06-26T05:05:10;21.88;;;7.30;;
46675;SDS011;32412;51.478;5.694;2023-06-26T05:07:36;11.35;;;4.95;;
46675;SDS011;32412;51.478;5.694;2023-06-26T05:10:02;15.88;;;5.47;;
46675;SDS011;32412;51.478;5.694;2023-06-26T05:12:29;14.70;;;4.88;;
46675;SDS011;32412;51.478;5.694;2023-06-26T05:14:54;13.23;;;4.65;;
46675;SDS011;32412;51.478;5.694;2023-06-26T05:17:20;15.32;;;4.50;;
46675;SDS011;32412;51.478;5.694;2023-06-26T05:19:46;15.02;;;5.28;;
46675;SDS011;32412;51.478;5.694;2023-06-26T05:22:15;10.43;;;4.30;;
46675;SDS011;32412;51.478;5.694;2023-06-26T05:24:42;14.85;;;4.75;;
46675;SDS011;32412;51.478;5.694;2023-06-26T05:27:11;16.48;;;5.45;;
46675;SDS011;32412;51.478;5.694;2023-06-26T05:29:44;19.40;;;5.38;;
46675;SDS011;32412;51.478;5.694;2023-06-26T05:32:10;10.18;;;5.00;;
46675;SDS011;32412;51.478;5.694;2023-06-26T05:34:37;18.52;;;4.45;;
46675;SDS011;32412;51.478;5.694;2023-06-26T05:37:04;10.25;;;4.10;;
46675;SDS011;32412;51.478;5.694;2023-06-26T05:39:31;15.45;;;4.72;;
46675;SDS011;32412;51.478;5.694;2023-06-26T05:41:57;16.92;;;5.05;;
46675;SDS011;32412;51.478;5.694;2023-06-26T05:44:23;12.27;;;4.38;;
46675;SDS011;32412;51.478;5.694;2023-06-26T05:46:49;13.45;;;4.20;;
46675;SDS011;32412;51.478;5.694;2023-06-26T05:49:14;12.77;;;4.22;;
46675;SDS011;32412;51.478;5.694;2023-06-26T05:51:40;9.88;;;3.90;;
46675;SDS011;32412;51.478;5.694;2023-06-26T05:54:06;8.77;;;4.20;;
46675;SDS011;32412;51.478;5.694;2023-06-26T05:56:32;10.23;;;4.80;;
46675;SDS011;32412;51.478;5.694;2023-06-26T05:58:58;13.77;;;4.53;;
46675;SDS011;32412;51.478;5.694;2023-06-26T06:01:24;11.77;;;4.75;;
46675;SDS011;32412;51.478;5.694;2023-06-26T06:03:50;14.18;;;4.30;;
46675;SDS011;32412;51.478;5.694;2023-06-26T06:06:15;11.57;;;4.65;;
46675;SDS011;32412;51.478;5.694;2023-06-26T06:08:42;12.02;;;3.97;;
46675;SDS011;32412;51.478;5.694;2023-06-26T06:11:08;15.27;;;4.18;;
46675;SDS011;32412;51.478;5.694;2023-06-26T06:13:33;10.82;;;3.92;;
46675;SDS011;32412;51.478;5.694;2023-06-26T06:15:59;15.18;;;3.75;;
46675;SDS011;32412;51.478;5.694;2023-06-26T06:18:24;10.90;;;4.53;;
46675;SDS011;32412;51.478;5.694;2023-06-26T06:20:50;15.15;;;3.88;;
46675;SDS011;32412;51.478;5.694;2023-06-26T06:23:16;8.77;;;3.58;;
46675;SDS011;32412;51.478;5.694;2023-06-26T06:25:41;10.50;;;3.78;;
46675;SDS011;32412;51.478;5.694;2023-06-26T06:28:07;14.60;;;3.70;;
46675;SDS011;32412;51.478;5.694;2023-06-26T06:30:32;11.13;;;3.92;;
46675;SDS011;32412;51.478;5.694;2023-06-26T06:32:58;9.65;;;3.92;;
46675;SDS011;32412;51.478;5.694;2023-06-26T06:35:23;14.20;;;3.80;;
46675;SDS011;32412;51.478;5.694;2023-06-26T06:37:49;12.13;;;3.65;;
46675;SDS011;32412;51.478;5.694;2023-06-26T06:40:15;13.48;;;3.75;;
46675;SDS011;32412;51.478;5.694;2023-06-26T06:42:41;9.52;;;3.38;;
46675;SDS011;32412;51.478;5.694;2023-06-26T06:45:06;11.70;;;3.00;;
46675;SDS011;32412;51.478;5.694;2023-06-26T06:47:33;9.50;;;3.20;;
46675;SDS011;32412;51.478;5.694;2023-06-26T06:49:59;8.82;;;2.95;;
46675;SDS011;32412;51.478;5.694;2023-06-26T06:52:32;11.00;;;3.50;;
46675;SDS011;32412;51.478;5.694;2023-06-26T06:55:00;15.40;;;3.47;;
46675;SDS011;32412;51.478;5.694;2023-06-26T06:57:30;13.75;;;3.22;;
46675;SDS011;32412;51.478;5.694;2023-06-26T06:59:55;13.65;;;4.13;;
46675;SDS011;32412;51.478;5.694;2023-06-26T07:02:21;9.82;;;2.90;;
46675;SDS011;32412;51.478;5.694;2023-06-26T07:04:47;9.38;;;3.53;;
46675;SDS011;32412;51.478;5.694;2023-06-26T07:07:12;8.95;;;2.95;;
46675;SDS011;32412;51.478;5.694;2023-06-26T07:09:41;9.45;;;3.22;;
46675;SDS011;32412;51.478;5.694;2023-06-26T07:12:07;9.85;;;3.17;;
46675;SDS011;32412;51.478;5.694;2023-06-26T07:14:32;9.48;;;2.72;;
46675;SDS011;32412;51.478;5.694;2023-06-26T07:16:58;13.85;;;3.25;;
46675;SDS011;32412;51.478;5.694;2023-06-26T07:19:24;6.05;;;2.65;;
46675;SDS011;32412;51.478;5.694;2023-06-26T07:21:49;6.28;;;2.60;;
46675;SDS011;32412;51.478;5.694;2023-06-26T07:24:15;8.00;;;2.45;;
46675;SDS011;32412;51.478;5.694;2023-06-26T07:26:40;6.82;;;2.78;;
46675;SDS011;32412;51.478;5.694;2023-06-26T07:29:06;6.63;;;2.78;;
46675;SDS011;32412;51.478;5.694;2023-06-26T07:31:31;7.88;;;3.28;;
46675;SDS011;32412;51.478;5.694;2023-06-26T07:33:57;7.57;;;2.97;;
46675;SDS011;32412;51.478;5.694;2023-06-26T07:36:23;11.07;;;4.57;;
46675;SDS011;32412;51.478;5.694;2023-06-26T07:38:48;7.65;;;3.03;;
46675;SDS011;32412;51.478;5.694;2023-06-26T07:41:14;10.40;;;3.22;;
46675;SDS011;32412;51.478;5.694;2023-06-26T07:43:39;6.65;;;2.60;;
46675;SDS011;32412;51.478;5.694;2023-06-26T07:46:05;7.53;;;2.75;;
46675;SDS011;32412;51.478;5.694;2023-06-26T07:48:31;5.88;;;2.80;;
46675;SDS011;32412;51.478;5.694;2023-06-26T07:50:56;10.63;;;3.40;;
46675;SDS011;32412;51.478;5.694;2023-06-26T07:53:22;8.50;;;2.90;;
46675;SDS011;32412;51.478;5.694;2023-06-26T07:55:47;4.38;;;2.60;;
46675;SDS011;32412;51.478;5.694;2023-06-26T07:58:13;5.25;;;2.83;;
46675;SDS011;32412;51.478;5.694;2023-06-26T08:00:40;8.73;;;3.38;;
46675;SDS011;32412;51.478;5.694;2023-06-26T08:03:06;8.80;;;3.05;;
46675;SDS011;32412;51.478;5.694;2023-06-26T08:05:31;6.28;;;2.53;;
46675;SDS011;32412;51.478;5.694;2023-06-26T08:07:57;9.32;;;3.15;;
46675;SDS011;32412;51.478;5.694;2023-06-26T08:10:23;8.48;;;2.70;;
46675;SDS011;32412;51.478;5.694;2023-06-26T08:12:48;8.77;;;3.00;;
46675;SDS011;32412;51.478;5.694;2023-06-26T08:15:15;7.68;;;2.95;;
46675;SDS011;32412;51.478;5.694;2023-06-26T08:17:41;7.43;;;3.05;;
46675;SDS011;32412;51.478;5.694;2023-06-26T08:20:07;8.38;;;2.60;;
46675;SDS011;32412;51.478;5.694;2023-06-26T08:22:33;8.95;;;3.22;;
46675;SDS011;32412;51.478;5.694;2023-06-26T08:24:59;7.97;;;3.65;;
46675;SDS011;32412;51.478;5.694;2023-06-26T08:27:25;4.97;;;3.05;;
46675;SDS011;32412;51.478;5.694;2023-06-26T08:29:50;5.15;;;3.30;;
46675;SDS011;32412;51.478;5.694;2023-06-26T08:32:16;8.60;;;2.75;;
46675;SDS011;32412;51.478;5.694;2023-06-26T08:34:42;6.38;;;2.83;;
46675;SDS011;32412;51.478;5.694;2023-06-26T08:37:07;3.65;;;2.30;;
46675;SDS011;32412;51.478;5.694;2023-06-26T08:39:34;4.38;;;2.42;;
46675;SDS011;32412;51.478;5.694;2023-06-26T08:42:00;6.90;;;2.22;;
46675;SDS011;32412;51.478;5.694;2023-06-26T08:44:25;2.83;;;2.00;;
46675;SDS011;32412;51.478;5.694;2023-06-26T08:46:51;3.95;;;1.80;;
46675;SDS011;32412;51.478;5.694;2023-06-26T08:49:20;7.65;;;1.95;;
46675;SDS011;32412;51.478;5.694;2023-06-26T08:51:52;3.40;;;1.50;;
46675;SDS011;32412;51.478;5.694;2023-06-26T08:54:22;3.92;;;1.80;;
46675;SDS011;32412;51.478;5.694;2023-06-26T08:56:53;2.38;;;1.73;;
46675;SDS011;32412;51.478;5.694;2023-06-26T08:59:21;3.38;;;1.25;;
46675;SDS011;32412;51.478;5.694;2023-06-26T09:01:47;5.38;;;1.30;;
46675;SDS011;32412;51.478;5.694;2023-06-26T09:04:13;5.30;;;1.40;;
46675;SDS011;32412;51.478;5.694;2023-06-26T09:06:39;3.08;;;1.40;;
46675;SDS011;32412;51.478;5.694;2023-06-26T09:09:04;3.78;;;1.27;;
46675;SDS011;32412;51.478;5.694;2023-06-26T09:11:30;5.32;;;1.30;;
46675;SDS011;32412;51.478;5.694;2023-06-26T09:13:56;3.85;;;1.23;;
46675;SDS011;32412;51.478;5.694;2023-06-26T09:16:25;2.92;;;1.23;;
46675;SDS011;32412;51.478;5.694;2023-06-26T09:18:51;2.47;;;1.10;;
46675;SDS011;32412;51.478;5.694;2023-06-26T09:21:17;2.58;;;1.65;;
46675;SDS011;32412;51.478;5.694;2023-06-26T09:23:43;1.85;;;1.15;;
46675;SDS011;32412;51.478;5.694;2023-06-26T09:26:09;6.80;;;1.80;;
46675;SDS011;32412;51.478;5.694;2023-06-26T09:28:36;2.85;;;1.30;;
46675;SDS011;32412;51.478;5.694;2023-06-26T09:31:06;5.85;;;1.00;;
46675;SDS011;32412;51.478;5.694;2023-06-26T09:33:36;3.30;;;1.10;;
46675;SDS011;32412;51.478;5.694;2023-06-26T09:36:06;2.28;;;1.10;;
46675;SDS011;32412;51.478;5.694;2023-06-26T09:38:34;2.60;;;1.00;;
46675;SDS011;32412;51.478;5.694;2023-06-26T09:41:01;1.30;;;1.17;;
46675;SDS011;32412;51.478;5.694;2023-06-26T09:43:27;4.85;;;1.20;;
46675;SDS011;32412;51.478;5.694;2023-06-26T09:45:53;3.45;;;0.90;;
46675;SDS011;32412;51.478;5.694;2023-06-26T09:48:19;2.88;;;1.00;;
46675;SDS011;32412;51.478;5.694;2023-06-26T09:50:45;2.53;;;1.10;;
46675;SDS011;32412;51.478;5.694;2023-06-26T09:53:12;2.67;;;1.02;;
46675;SDS011;32412;51.478;5.694;2023-06-26T09:55:43;2.58;;;1.10;;
46675;SDS011;32412;51.478;5.694;2023-06-26T09:58:12;5.20;;;0.95;;
46675;SDS011;32412;51.478;5.694;2023-06-26T10:00:42;2.00;;;0.88;;
46675;SDS011;32412;51.478;5.694;2023-06-26T10:03:08;1.67;;;0.80;;
46675;SDS011;32412;51.478;5.694;2023-06-26T10:05:35;3.35;;;1.10;;
46675;SDS011;32412;51.478;5.694;2023-06-26T10:08:00;3.50;;;0.80;;
46675;SDS011;32412;51.478;5.694;2023-06-26T10:10:29;2.00;;;1.20;;
46675;SDS011;32412;51.478;5.694;2023-06-26T10:12:58;6.28;;;1.02;;
46675;SDS011;32412;51.478;5.694;2023-06-26T10:15:27;2.30;;;1.08;;
46675;SDS011;32412;51.478;5.694;2023-06-26T10:17:55;2.45;;;0.90;;
46675;SDS011;32412;51.478;5.694;2023-06-26T10:20:22;1.52;;;0.90;;
46675;SDS011;32412;51.478;5.694;2023-06-26T10:22:48;3.03;;;1.10;;
46675;SDS011;32412;51.478;5.694;2023-06-26T10:25:18;2.67;;;1.17;;
46675;SDS011;32412;51.478;5.694;2023-06-26T10:27:45;1.58;;;0.70;;
46675;SDS011;32412;51.478;5.694;2023-06-26T10:30:16;5.20;;;1.00;;
46675;SDS011;32412;51.478;5.694;2023-06-26T10:32:45;4.43;;;0.80;;
46675;SDS011;32412;51.478;5.694;2023-06-26T10:35:11;2.00;;;0.90;;
46675;SDS011;32412;51.478;5.694;2023-06-26T10:37:47;2.60;;;0.90;;
46675;SDS011;32412;51.478;5.694;2023-06-26T10:40:14;2.33;;;0.90;;
46675;SDS011;32412;51.478;5.694;2023-06-26T10:42:46;2.03;;;0.80;;
46675;SDS011;32412;51.478;5.694;2023-06-26T10:45:15;2.25;;;0.77;;
46675;SDS011;32412;51.478;5.694;2023-06-26T10:47:43;2.78;;;0.85;;
46675;SDS011;32412;51.478;5.694;2023-06-26T10:58:32;2.13;;;0.80;;
46675;SDS011;32412;51.478;5.694;2023-06-26T11:03:37;1.42;;;0.73;;
46675;SDS011;32412;51.478;5.694;2023-06-26T11:06:19;3.15;;;0.90;;
46675;SDS011;32412;51.478;5.694;2023-06-26T11:08:47;1.88;;;1.00;;
46675;SDS011;32412;51.478;5.694;2023-06-26T11:11:20;2.05;;;1.20;;
46675;SDS011;32412;51.478;5.694;2023-06-26T11:13:47;2.97;;;0.90;;
46675;SDS011;32412;51.478;5.694;2023-06-26T11:16:13;2.97;;;1.20;;
46675;SDS011;32412;51.478;5.694;2023-06-26T11:18:40;1.50;;;0.90;;
46675;SDS011;32412;51.478;5.694;2023-06-26T11:21:07;1.33;;;0.90;;
46675;SDS011;32412;51.478;5.694;2023-06-26T11:23:34;1.08;;;0.70;;
46675;SDS011;32412;51.478;5.694;2023-06-26T11:26:14;3.30;;;0.95;;
46675;SDS011;32412;51.478;5.694;2023-06-26T11:28:47;2.97;;;0.90;;
46675;SDS011;32412;51.478;5.694;2023-06-26T11:31:23;1.40;;;0.90;;
46675;SDS011;32412;51.478;5.694;2023-06-26T11:33:56;4.72;;;0.85;;
46675;SDS011;32412;51.478;5.694;2023-06-26T11:36:24;7.55;;;1.42;;
46675;SDS011;32412;51.478;5.694;2023-06-26T11:39:00;1.80;;;1.08;;
46675;SDS011;32412;51.478;5.694;2023-06-26T11:41:31;3.35;;;0.95;;
46675;SDS011;32412;51.478;5.694;2023-06-26T11:44:01;0.85;;;0.80;;
46675;SDS011;32412;51.478;5.694;2023-06-26T11:46:27;1.77;;;0.80;;
46675;SDS011;32412;51.478;5.694;2023-06-26T11:48:53;3.05;;;0.82;;
46675;SDS011;32412;51.478;5.694;2023-06-26T11:51:19;2.17;;;0.93;;
46675;SDS011;32412;51.478;5.694;2023-06-26T11:53:45;2.33;;;0.90;;
46675;SDS011;32412;51.478;5.694;2023-06-26T11:56:12;1.50;;;0.90;;
46675;SDS011;32412;51.478;5.694;2023-06-26T12:04:04;1.73;;;0.80;;
46675;SDS011;32412;51.478;5.694;2023-06-26T12:06:32;2.63;;;1.00;;
46675;SDS011;32412;51.478;5.694;2023-06-26T12:09:00;1.85;;;0.95;;
46675;SDS011;32412;51.478;5.694;2023-06-26T12:11:29;2.45;;;0.80;;
46675;SDS011;32412;51.478;5.694;2023-06-26T12:13:56;1.77;;;0.90;;
46675;SDS011;32412;51.478;5.694;2023-06-26T12:16:22;2.90;;;1.30;;
46675;SDS011;32412;51.478;5.694;2023-06-26T12:18:47;3.53;;;0.95;;
46675;SDS011;32412;51.478;5.694;2023-06-26T12:24:07;4.80;;;1.17;;
46675;SDS011;32412;51.478;5.694;2023-06-26T12:26:35;2.50;;;0.85;;
46675;SDS011;32412;51.478;5.694;2023-06-26T12:29:04;3.25;;;1.13;;
46675;SDS011;32412;51.478;5.694;2023-06-26T12:31:34;6.03;;;1.13;;
46675;SDS011;32412;51.478;5.694;2023-06-26T12:34:01;1.95;;;0.80;;
46675;SDS011;32412;51.478;5.694;2023-06-26T12:36:27;0.80;;;0.80;;
46675;SDS011;32412;51.478;5.694;2023-06-26T12:38:53;3.03;;;0.93;;
46675;SDS011;32412;51.478;5.694;2023-06-26T12:41:19;1.58;;;1.00;;
46675;SDS011;32412;51.478;5.694;2023-06-26T12:43:48;1.40;;;1.15;;
46675;SDS011;32412;51.478;5.694;2023-06-26T12:46:15;1.85;;;0.85;;
46675;SDS011;32412;51.478;5.694;2023-06-26T12:48:41;2.63;;;0.95;;
46675;SDS011;32412;51.478;5.694;2023-06-26T12:51:16;2.72;;;0.80;;
46675;SDS011;32412;51.478;5.694;2023-06-26T12:53:43;3.40;;;1.10;;
46675;SDS011;32412;51.478;5.694;2023-06-26T12:56:09;2.30;;;1.08;;
46675;SDS011;32412;51.478;5.694;2023-06-26T12:58:35;3.00;;;1.02;;
46675;SDS011;32412;51.478;5.694;2023-06-26T13:01:03;2.00;;;1.30;;
46675;SDS011;32412;51.478;5.694;2023-06-26T13:03:30;6.90;;;1.67;;
46675;SDS011;32412;51.478;5.694;2023-06-26T13:05:55;4.55;;;1.17;;
46675;SDS011;32412;51.478;5.694;2023-06-26T13:08:21;2.58;;;0.90;;
46675;SDS011;32412;51.478;5.694;2023-06-26T13:10:47;3.75;;;1.10;;
46675;SDS011;32412;51.478;5.694;2023-06-26T13:13:12;1.55;;;0.85;;
46675;SDS011;32412;51.478;5.694;2023-06-26T13:15:38;2.25;;;1.00;;
46675;SDS011;32412;51.478;5.694;2023-06-26T13:18:04;1.60;;;0.93;;
46675;SDS011;32412;51.478;5.694;2023-06-26T13:20:29;4.05;;;1.20;;
46675;SDS011;32412;51.478;5.694;2023-06-26T13:22:55;2.22;;;1.10;;
46675;SDS011;32412;51.478;5.694;2023-06-26T13:25:21;1.48;;;1.00;;
46675;SDS011;32412;51.478;5.694;2023-06-26T13:27:47;2.33;;;0.90;;
46675;SDS011;32412;51.478;5.694;2023-06-26T13:30:13;1.92;;;0.70;;
46675;SDS011;32412;51.478;5.694;2023-06-26T13:32:39;2.67;;;1.27;;
46675;SDS011;32412;51.478;5.694;2023-06-26T13:35:05;2.92;;;1.00;;
46675;SDS011;32412;51.478;5.694;2023-06-26T13:37:31;1.30;;;0.80;;
46675;SDS011;32412;51.478;5.694;2023-06-26T13:39:59;1.83;;;1.10;;
46675;SDS011;32412;51.478;5.694;2023-06-26T13:42:26;2.88;;;0.80;;
46675;SDS011;32412;51.478;5.694;2023-06-26T13:44:52;3.40;;;1.00;;
46675;SDS011;32412;51.478;5.694;2023-06-26T13:47:17;3.90;;;0.93;;
46675;SDS011;32412;51.478;5.694;2023-06-26T13:49:43;2.88;;;1.13;;
46675;SDS011;32412;51.478;5.694;2023-06-26T13:52:09;1.45;;;0.60;;
46675;SDS011;32412;51.478;5.694;2023-06-26T13:54:37;2.08;;;0.88;;
46675;SDS011;32412;51.478;5.694;2023-06-26T13:57:05;3.33;;;0.95;;
46675;SDS011;32412;51.478;5.694;2023-06-26T13:59:31;0.98;;;0.88;;
46675;SDS011;32412;51.478;5.694;2023-06-26T14:01:58;1.33;;;0.65;;
46675;SDS011;32412;51.478;5.694;2023-06-26T14:04:24;1.13;;;1.00;;
46675;SDS011;32412;51.478;5.694;2023-06-26T14:06:50;1.13;;;0.63;;
46675;SDS011;32412;51.478;5.694;2023-06-26T14:09:15;1.92;;;1.05;;
46675;SDS011;32412;51.478;5.694;2023-06-26T14:11:41;1.60;;;0.90;;
46675;SDS011;32412;51.478;5.694;2023-06-26T14:14:08;4.38;;;0.85;;
46675;SDS011;32412;51.478;5.694;2023-06-26T14:16:34;0.90;;;0.70;;
46675;SDS011;32412;51.478;5.694;2023-06-26T14:18:59;2.15;;;1.10;;
46675;SDS011;32412;51.478;5.694;2023-06-26T14:21:25;1.08;;;0.88;;
46675;SDS011;32412;51.478;5.694;2023-06-26T14:23:52;2.35;;;0.68;;
46675;SDS011;32412;51.478;5.694;2023-06-26T14:26:18;2.78;;;1.00;;
46675;SDS011;32412;51.478;5.694;2023-06-26T14:28:44;5.30;;;1.25;;
46675;SDS011;32412;51.478;5.694;2023-06-26T14:31:10;2.45;;;1.00;;
46675;SDS011;32412;51.478;5.694;2023-06-26T14:33:35;1.13;;;0.77;;
46675;SDS011;32412;51.478;5.694;2023-06-26T14:36:01;3.47;;;0.90;;
46675;SDS011;32412;51.478;5.694;2023-06-26T14:38:27;2.10;;;1.00;;
46675;SDS011;32412;51.478;5.694;2023-06-26T14:40:53;3.05;;;1.23;;
46675;SDS011;32412;51.478;5.694;2023-06-26T14:43:18;2.28;;;0.90;;
46675;SDS011;32412;51.478;5.694;2023-06-26T14:45:44;3.88;;;0.82;;
46675;SDS011;32412;51.478;5.694;2023-06-26T14:48:10;3.58;;;1.00;;
46675;SDS011;32412;51.478;5.694;2023-06-26T14:50:35;2.42;;;1.02;;
46675;SDS011;32412;51.478;5.694;2023-06-26T14:53:01;3.85;;;1.00;;
46675;SDS011;32412;51.478;5.694;2023-06-26T14:55:27;2.28;;;0.95;;
46675;SDS011;32412;51.478;5.694;2023-06-26T14:57:53;2.72;;;1.10;;
46675;SDS011;32412;51.478;5.694;2023-06-26T15:00:19;1.95;;;0.82;;
46675;SDS011;32412;51.478;5.694;2023-06-26T15:02:44;1.40;;;0.90;;
46675;SDS011;32412;51.478;5.694;2023-06-26T15:05:10;2.60;;;0.90;;
46675;SDS011;32412;51.478;5.694;2023-06-26T15:07:35;1.38;;;1.10;;
46675;SDS011;32412;51.478;5.694;2023-06-26T15:10:01;6.40;;;0.90;;